Time;durP1;ratioP1;P1;durP2;ratioP2;P2;SDS_P1;SDS_P2;PMS_P1;PMS_P2;Temp;Humidity;BMP_temperature;BMP_pressure;BME280_temperature;BME280_humidity;BME280_pressure;Samples;Min_cycle;Max_cycle;Signal;HPM_P1;HPM_P2
2021/08/20 00:01:07;;;;;;;6.00;2.80;;;16.80;87.50;;;;;;5015289;28;20402;-78
2021/08/20 00:03:33;;;;;;;4.97;3.70;;;16.80;87.30;;;;;;5014777;28;20290;-79
2021/08/20 00:06:00;;;;;;;4.10;2.90;;;16.80;87.20;;;;;;5013511;28;20178;-81
2021/08/20 00:08:25;;;;;;;4.40;3.13;;;16.70;87.10;;;;;;5014058;28;20421;-79
2021/08/20 00:10:51;;;;;;;5.93;3.50;;;16.70;87.10;;;;;;5014924;28;20203;-79
2021/08/20 00:13:17;;;;;;;4.90;3.33;;;16.70;87.30;;;;;;5013837;28;20473;-78
2021/08/20 00:15:45;;;;;;;8.83;3.07;;;16.70;87.40;;;;;;5014990;28;20163;-79
2021/08/20 00:18:12;;;;;;;5.13;2.90;;;16.70;87.50;;;;;;5014397;28;20179;-79
2021/08/20 00:20:38;;;;;;;3.80;2.40;;;16.70;87.60;;;;;;5015006;28;20465;-80
2021/08/20 00:23:04;;;;;;;5.30;2.80;;;16.70;87.50;;;;;;5014089;28;20438;-79
2021/08/20 00:25:31;;;;;;;7.20;3.57;;;16.70;87.30;;;;;;5015619;28;20182;-80
2021/08/20 00:27:57;;;;;;;5.40;3.00;;;16.80;87.10;;;;;;5019261;28;20177;-80
2021/08/20 00:30:22;;;;;;;4.03;3.00;;;16.80;86.70;;;;;;5022287;28;20430;-79
2021/08/20 00:32:48;;;;;;;4.60;2.93;;;16.90;86.70;;;;;;5005876;28;20298;-77
2021/08/20 00:35:14;;;;;;;6.63;2.90;;;16.90;86.60;;;;;;5017238;28;20166;-80
2021/08/20 00:37:40;;;;;;;5.70;2.57;;;16.90;86.30;;;;;;5012594;28;20176;-80
2021/08/20 00:40:07;;;;;;;4.03;3.13;;;16.90;86.50;;;;;;5014069;28;20163;-80
2021/08/20 00:42:33;;;;;;;4.53;2.83;;;16.90;86.40;;;;;;5013791;28;20195;-80
2021/08/20 00:44:59;;;;;;;8.67;3.07;;;16.80;86.40;;;;;;5012786;28;20479;-80
2021/08/20 00:47:25;;;;;;;5.50;2.60;;;16.80;86.40;;;;;;4996776;28;20421;-80
2021/08/20 00:49:51;;;;;;;6.47;3.10;;;16.80;86.60;;;;;;5018984;28;20418;-79
2021/08/20 00:52:19;;;;;;;3.63;2.57;;;16.80;86.90;;;;;;5016057;28;20261;-80
2021/08/20 00:54:45;;;;;;;4.43;3.30;;;16.70;86.70;;;;;;5011805;28;20675;-78
2021/08/20 00:57:12;;;;;;;4.20;2.93;;;16.70;86.70;;;;;;5013377;28;20440;-78
2021/08/20 00:59:38;;;;;;;3.80;2.83;;;16.70;87.00;;;;;;5013799;28;20186;-79
2021/08/20 01:02:06;;;;;;;4.40;3.33;;;16.70;87.10;;;;;;5013462;28;20445;-79
2021/08/20 01:04:32;;;;;;;4.10;3.27;;;16.70;87.10;;;;;;5012354;28;20817;-80
2021/08/20 01:06:59;;;;;;;4.20;2.63;;;16.70;87.10;;;;;;5014629;28;20413;-80
2021/08/20 01:09:25;;;;;;;5.20;2.47;;;16.70;87.10;;;;;;5013854;28;20159;-79
2021/08/20 01:11:51;;;;;;;5.70;2.43;;;16.70;87.10;;;;;;5014632;28;20464;-79
2021/08/20 01:14:34;;;;;;;3.83;3.07;;;16.70;87.10;;;;;;5013081;28;20232;-79
2021/08/20 01:17:06;;;;;;;6.40;2.70;;;16.70;87.40;;;;;;4996257;28;20429;-80
2021/08/20 01:19:36;;;;;;;5.47;3.67;;;16.70;87.30;;;;;;5011612;28;20526;-79
2021/08/20 01:22:05;;;;;;;3.30;2.30;;;16.70;87.50;;;;;;5013357;28;20768;-77
2021/08/20 01:24:33;;;;;;;4.70;2.73;;;16.70;87.50;;;;;;5011692;28;20422;-78
2021/08/20 01:27:01;;;;;;;3.33;2.50;;;16.70;88.30;;;;;;4997378;28;20500;-78
2021/08/20 01:29:30;;;;;;;4.77;2.50;;;16.70;87.60;;;;;;5010515;28;20429;-78
2021/08/20 01:31:55;;;;;;;3.40;2.80;;;16.70;87.40;;;;;;5012280;28;20429;-79
2021/08/20 01:34:21;;;;;;;5.13;2.73;;;16.70;87.40;;;;;;5012437;28;20461;-78
2021/08/20 01:36:51;;;;;;;4.13;2.53;;;16.70;87.30;;;;;;5011578;28;20563;-78
2021/08/20 01:39:16;;;;;;;3.13;2.80;;;16.70;87.40;;;;;;5011811;28;20428;-78
2021/08/20 01:41:42;;;;;;;3.50;2.90;;;16.70;88.10;;;;;;5012450;28;20159;-78
2021/08/20 01:44:08;;;;;;;5.40;2.67;;;16.70;87.20;;;;;;5012617;28;20187;-78
2021/08/20 01:46:33;;;;;;;2.87;2.27;;;16.70;87.40;;;;;;4995468;28;20242;-78
2021/08/20 01:49:03;;;;;;;4.20;2.50;;;16.80;87.50;;;;;;5010832;28;20173;-78
2021/08/20 01:51:31;;;;;;;7.60;3.10;;;16.80;87.40;;;;;;5014065;28;20410;-78
2021/08/20 01:54:00;;;;;;;4.90;3.00;;;16.80;87.00;;;;;;5014449;28;20466;-77
2021/08/20 01:56:29;;;;;;;6.93;4.00;;;16.80;87.10;;;;;;5015933;28;20406;-78
2021/08/20 01:58:57;;;;;;;3.80;2.80;;;16.80;87.00;;;;;;5013132;28;20549;-78
2021/08/20 02:01:23;;;;;;;5.00;3.00;;;16.70;86.90;;;;;;5015315;28;20410;-78
2021/08/20 02:03:49;;;;;;;4.10;3.10;;;16.70;87.00;;;;;;5011872;28;20982;-79
2021/08/20 02:06:18;;;;;;;4.47;3.50;;;16.70;87.10;;;;;;5011493;28;20418;-78
2021/08/20 02:08:45;;;;;;;6.40;3.57;;;16.70;87.20;;;;;;4990913;28;20428;-78
2021/08/20 02:11:11;;;;;;;5.97;3.60;;;16.70;87.40;;;;;;4991399;28;20422;-79
2021/08/20 02:13:43;;;;;;;5.90;2.70;;;16.60;87.40;;;;;;4991065;28;20469;-78
2021/08/20 02:16:09;;;;;;;9.23;3.40;;;16.60;87.20;;;;;;4992431;28;20916;-78
2021/08/20 02:18:36;;;;;;;6.73;3.60;;;16.50;87.30;;;;;;5009562;28;20438;-78
2021/08/20 02:21:02;;;;;;;3.90;2.93;;;16.50;87.60;;;;;;5010328;28;20796;-78
2021/08/20 02:23:32;;;;;;;5.73;3.67;;;16.50;87.80;;;;;;5010655;28;20444;-79
2021/08/20 02:25:59;;;;;;;3.90;3.07;;;16.40;87.80;;;;;;5010725;28;20994;-78
2021/08/20 02:28:26;;;;;;;7.87;4.27;;;16.40;88.10;;;;;;5009524;28;20422;-78
2021/08/20 02:30:56;;;;;;;5.67;3.93;;;16.40;88.40;;;;;;5009641;28;20167;-79
2021/08/20 02:33:23;;;;;;;4.60;3.43;;;16.40;89.10;;;;;;5011720;28;20462;-78
2021/08/20 02:35:48;;;;;;;4.70;3.73;;;16.40;88.50;;;;;;5011577;28;20900;-78
2021/08/20 02:38:14;;;;;;;6.17;3.73;;;16.40;88.30;;;;;;5009512;28;20171;-78
2021/08/20 02:40:41;;;;;;;6.20;4.33;;;16.40;88.40;;;;;;5010393;28;20163;-78
2021/08/20 02:43:07;;;;;;;7.10;4.10;;;16.40;88.20;;;;;;5010294;28;20441;-78
2021/08/20 02:45:34;;;;;;;6.10;3.60;;;16.40;88.20;;;;;;5012056;28;20210;-78
2021/08/20 02:48:04;;;;;;;7.67;4.73;;;16.30;88.20;;;;;;4994421;28;20418;-79
2021/08/20 02:50:31;;;;;;;5.80;4.43;;;16.30;88.40;;;;;;5011228;28;20422;-79
2021/08/20 02:52:57;;;;;;;4.70;3.57;;;16.30;88.60;;;;;;5011673;28;20460;-80
2021/08/20 02:55:28;;;;;;;6.20;4.00;;;16.30;88.70;;;;;;5008796;28;20410;-78
2021/08/20 02:57:54;;;;;;;6.53;3.97;;;16.30;88.70;;;;;;5010302;28;20465;-79
2021/08/20 03:00:20;;;;;;;7.23;4.80;;;16.30;88.70;;;;;;5014403;28;20818;-79
2021/08/20 03:02:47;;;;;;;9.10;4.33;;;16.30;88.70;;;;;;4996990;28;20644;-78
2021/08/20 03:05:13;;;;;;;7.03;4.13;;;16.30;88.60;;;;;;5011472;28;20425;-77
2021/08/20 03:07:39;;;;;;;7.37;4.80;;;16.40;88.70;;;;;;5013730;28;20171;-77
2021/08/20 03:10:06;;;;;;;6.40;3.70;;;16.40;88.40;;;;;;5027117;28;20496;-78
2021/08/20 03:12:35;;;;;;;6.70;5.00;;;16.30;88.50;;;;;;5026488;28;20469;-78
2021/08/20 03:15:01;;;;;;;6.57;4.70;;;16.30;88.50;;;;;;5003928;28;20443;-78
2021/08/20 03:17:31;;;;;;;7.07;4.50;;;16.30;88.60;;;;;;5019349;28;20695;-77
2021/08/20 03:20:03;;;;;;;7.03;4.90;;;16.20;88.80;;;;;;5018649;28;20875;-78
2021/08/20 03:22:29;;;;;;;8.30;5.00;;;16.20;88.90;;;;;;5020623;28;20548;-78
2021/08/20 03:24:55;;;;;;;8.63;5.00;;;16.20;88.90;;;;;;5021578;28;20529;-78
2021/08/20 03:27:21;;;;;;;6.73;4.87;;;16.20;89.00;;;;;;5022303;28;20428;-79
2021/08/20 03:30:04;;;;;;;6.33;4.90;;;16.10;89.10;;;;;;5003183;28;20429;-79
2021/08/20 03:32:44;;;;;;;11.27;6.03;;;16.10;89.40;;;;;;4999698;28;20457;-78
2021/08/20 03:35:10;;;;;;;7.90;4.90;;;16.10;89.60;;;;;;5018162;28;20424;-79
2021/08/20 03:37:42;;;;;;;10.13;5.47;;;16.10;89.70;;;;;;5018137;28;20418;-79
2021/08/20 03:40:12;;;;;;;9.50;5.57;;;16.00;89.70;;;;;;5019839;28;20206;-78
2021/08/20 03:42:44;;;;;;;7.70;5.57;;;16.00;89.90;;;;;;5022140;28;20830;-78
2021/08/20 03:45:26;;;;;;;6.87;4.73;;;16.10;90.00;;;;;;5015296;28;20449;-79
2021/08/20 03:47:53;;;;;;;7.47;5.10;;;16.10;90.00;;;;;;5014271;28;20425;-79
2021/08/20 03:50:18;;;;;;;8.80;6.13;;;16.10;90.00;;;;;;4998539;28;20514;-79
2021/08/20 03:52:44;;;;;;;11.80;5.40;;;16.10;90.00;;;;;;5014148;28;20226;-79
2021/08/20 03:55:10;;;;;;;9.07;5.70;;;16.10;90.00;;;;;;5014478;28;20174;-79
2021/08/20 03:57:49;;;;;;;12.60;6.03;;;16.10;89.90;;;;;;5014925;28;20512;-79
2021/08/20 04:00:15;;;;;;;10.60;4.90;;;16.10;90.00;;;;;;5013046;28;20414;-79
2021/08/20 04:02:43;;;;;;;7.73;5.50;;;16.20;90.00;;;;;;5013464;28;20446;-79
2021/08/20 04:05:10;;;;;;;7.37;5.37;;;16.20;90.00;;;;;;5012173;28;20823;-79
2021/08/20 04:08:01;;;;;;;9.90;6.73;;;16.20;90.00;;;;;;5011957;28;20224;-79
2021/08/20 04:10:56;;;;;;;9.43;6.00;;;16.20;90.00;;;;;;5000068;28;20425;-79
2021/08/20 04:13:35;;;;;;;8.33;5.60;;;16.30;89.80;;;;;;5012631;28;20513;-79
2021/08/20 04:16:01;;;;;;;7.80;5.77;;;16.30;89.50;;;;;;5013638;28;20472;-80
2021/08/20 04:18:27;;;;;;;8.70;5.97;;;16.30;89.50;;;;;;5020900;28;20190;-81
2021/08/20 04:20:52;;;;;;;10.00;6.70;;;16.20;89.60;;;;;;4999095;28;20426;-79
2021/08/20 04:23:19;;;;;;;10.90;7.20;;;16.20;90.20;;;;;;5005040;28;20194;-78
2021/08/20 04:25:49;;;;;;;8.03;5.90;;;16.20;89.80;;;;;;5014379;28;20943;-77
2021/08/20 04:28:43;;;;;;;14.20;6.97;;;16.20;90.00;;;;;;5012039;28;20421;-76
2021/08/20 04:31:38;;;;;;;9.63;7.37;;;16.30;90.00;;;;;;5007900;28;20895;-79
2021/08/20 04:34:25;;;;;;;13.60;6.73;;;16.30;90.00;;;;;;5015079;28;20477;-80
2021/08/20 04:37:17;;;;;;;14.00;6.87;;;16.30;90.00;;;;;;4999697;28;20422;-78
2021/08/20 04:40:08;;;;;;;10.10;5.80;;;16.30;90.10;;;;;;4993066;28;20419;-77
2021/08/20 04:43:00;;;;;;;13.50;7.57;;;16.30;90.20;;;;;;5005680;28;20526;-78
2021/08/20 04:45:47;;;;;;;14.43;6.83;;;16.40;90.10;;;;;;5012777;28;21213;-78
2021/08/20 04:48:33;;;;;;;9.23;6.40;;;16.40;90.10;;;;;;5009040;28;20489;-77
2021/08/20 04:51:12;;;;;;;9.03;6.20;;;16.40;90.10;;;;;;5012722;28;20894;-77
2021/08/20 04:53:44;;;;;;;10.67;6.73;;;16.50;90.00;;;;;;5003246;28;20967;-77
2021/08/20 04:56:24;;;;;;;8.60;6.63;;;16.50;90.00;;;;;;5011044;28;21054;-77
2021/08/20 04:58:49;;;;;;;12.33;6.73;;;16.50;90.00;;;;;;5000638;28;20427;-77
2021/08/20 05:01:16;;;;;;;9.37;6.20;;;16.60;89.80;;;;;;4996244;28;20419;-77
2021/08/20 05:03:46;;;;;;;12.13;6.10;;;16.60;89.40;;;;;;4998802;28;20742;-77
2021/08/20 05:06:12;;;;;;;10.67;6.93;;;16.60;89.70;;;;;;4999984;28;20899;-78
2021/08/20 05:08:39;;;;;;;15.83;7.43;;;16.60;89.50;;;;;;5007810;28;20422;-77
2021/08/20 05:11:05;;;;;;;14.70;7.87;;;16.70;90.00;;;;;;5010782;28;20532;-77
2021/08/20 05:13:31;;;;;;;10.20;6.30;;;16.70;88.90;;;;;;5010438;28;20521;-77
2021/08/20 05:15:57;;;;;;;15.20;7.10;;;16.80;88.60;;;;;;5010734;28;20449;-77
2021/08/20 05:18:22;;;;;;;13.97;6.97;;;16.80;88.70;;;;;;5010487;28;20406;-77
2021/08/20 05:20:48;;;;;;;10.23;6.80;;;16.80;88.40;;;;;;5011104;28;20171;-77
2021/08/20 05:23:14;;;;;;;10.60;6.10;;;16.80;88.30;;;;;;5010963;28;20221;-77
2021/08/20 05:25:40;;;;;;;12.83;6.93;;;16.80;88.40;;;;;;5011744;28;20370;-76
2021/08/20 05:28:08;;;;;;;11.20;6.73;;;16.80;88.30;;;;;;5009145;28;20520;-76
2021/08/20 05:30:34;;;;;;;10.20;6.40;;;16.90;88.40;;;;;;5010464;28;20185;-76
2021/08/20 05:33:00;;;;;;;10.20;6.97;;;16.90;88.20;;;;;;5010463;28;20454;-76
2021/08/20 05:35:26;;;;;;;15.03;7.00;;;16.90;88.00;;;;;;5010193;28;20448;-76
2021/08/20 05:37:54;;;;;;;11.23;6.93;;;17.00;88.10;;;;;;5007659;28;20214;-76
2021/08/20 05:40:20;;;;;;;11.57;6.70;;;17.00;88.00;;;;;;5008405;28;20163;-76
2021/08/20 05:42:46;;;;;;;9.40;7.00;;;17.00;88.00;;;;;;5008299;28;20438;-76
2021/08/20 05:45:15;;;;;;;10.70;7.33;;;17.10;87.80;;;;;;5008049;28;20848;-76
2021/08/20 05:47:40;;;;;;;9.77;6.40;;;17.10;87.60;;;;;;5008761;28;20168;-76
2021/08/20 05:50:07;;;;;;;12.07;7.27;;;17.20;87.50;;;;;;5010312;28;20409;-76
2021/08/20 05:52:39;;;;;;;8.87;6.07;;;17.20;87.30;;;;;;5010118;28;20333;-74
2021/08/20 05:55:07;;;;;;;13.00;7.00;;;17.30;87.40;;;;;;5009905;28;20416;-75
2021/08/20 05:57:32;;;;;;;11.50;6.73;;;17.30;87.30;;;;;;5007162;28;20414;-75
2021/08/20 05:59:58;;;;;;;12.63;8.63;;;17.40;87.20;;;;;;5010530;28;20411;-75
2021/08/20 06:02:23;;;;;;;14.30;6.70;;;17.40;86.90;;;;;;5008840;28;20699;-76
2021/08/20 06:04:49;;;;;;;16.07;8.03;;;17.50;86.70;;;;;;5010561;28;20170;-76
2021/08/20 06:07:15;;;;;;;12.20;7.30;;;17.70;86.50;;;;;;5008507;28;20748;-75
2021/08/20 06:09:41;;;;;;;10.27;6.73;;;17.80;86.10;;;;;;5009209;28;20234;-75
2021/08/20 06:12:07;;;;;;;11.93;7.10;;;17.90;85.50;;;;;;4992320;28;20176;-75
2021/08/20 06:14:33;;;;;;;7.67;6.33;;;18.10;84.80;;;;;;4990434;28;20250;-75
2021/08/20 06:16:59;;;;;;;9.30;6.97;;;18.20;84.30;;;;;;4988234;28;20462;-76
2021/08/20 06:19:26;;;;;;;12.33;8.03;;;18.20;83.80;;;;;;4988188;28;20910;-75
2021/08/20 06:21:52;;;;;;;13.53;6.70;;;18.30;84.10;;;;;;4990281;28;20168;-75
2021/08/20 06:24:19;;;;;;;9.77;5.83;;;18.40;82.90;;;;;;4988273;28;21041;-76
2021/08/20 06:26:46;;;;;;;10.30;7.37;;;18.50;82.70;;;;;;4988811;28;20506;-76
2021/08/20 06:29:13;;;;;;;9.37;7.53;;;18.50;81.90;;;;;;4988795;28;20528;-75
2021/08/20 06:31:39;;;;;;;10.70;6.53;;;18.50;82.70;;;;;;4988194;28;20428;-74
2021/08/20 06:34:04;;;;;;;10.53;8.07;;;18.50;82.20;;;;;;4989551;28;20539;-74
2021/08/20 06:36:30;;;;;;;15.83;9.23;;;18.60;82.10;;;;;;4990718;28;20209;-74
2021/08/20 06:38:56;;;;;;;18.43;8.47;;;18.60;82.80;;;;;;4988856;28;20163;-75
2021/08/20 06:41:21;;;;;;;13.23;8.20;;;18.70;82.60;;;;;;4990314;28;20183;-74
2021/08/20 06:43:47;;;;;;;10.03;6.60;;;18.80;82.20;;;;;;4988799;28;20220;-74
2021/08/20 06:46:13;;;;;;;9.43;7.03;;;18.90;81.50;;;;;;4990082;28;20416;-75
2021/08/20 06:48:39;;;;;;;17.77;8.03;;;19.00;81.30;;;;;;4987898;28;20175;-76
2021/08/20 06:51:04;;;;;;;18.00;8.20;;;19.00;80.60;;;;;;4992692;28;20167;-75
2021/08/20 06:53:30;;;;;;;17.40;7.97;;;19.00;80.50;;;;;;4993940;28;20209;-76
2021/08/20 06:55:56;;;;;;;12.40;8.67;;;19.00;81.20;;;;;;4993533;28;20183;-75
2021/08/20 06:58:22;;;;;;;13.37;7.00;;;19.10;81.10;;;;;;4992619;28;20171;-76
2021/08/20 07:00:49;;;;;;;14.40;7.63;;;19.20;80.50;;;;;;4992693;28;20429;-75
2021/08/20 07:03:16;;;;;;;11.43;7.30;;;19.20;81.60;;;;;;4993889;28;20975;-75
2021/08/20 07:05:42;;;;;;;11.53;8.30;;;19.20;80.20;;;;;;4975997;28;20179;-74
2021/08/20 07:08:08;;;;;;;11.73;8.00;;;19.30;80.40;;;;;;4993442;28;20474;-75
2021/08/20 07:10:33;;;;;;;10.40;7.13;;;19.30;80.80;;;;;;4993421;28;20171;-76
2021/08/20 07:12:59;;;;;;;9.20;7.00;;;19.40;80.10;;;;;;4993676;28;20673;-75
2021/08/20 07:15:25;;;;;;;10.57;8.50;;;19.60;80.60;;;;;;5012256;28;20476;-75
2021/08/20 07:17:50;;;;;;;8.73;7.17;;;19.70;79.60;;;;;;5010804;28;20163;-75
2021/08/20 07:20:16;;;;;;;12.80;7.87;;;19.90;78.10;;;;;;5012529;28;20171;-75
2021/08/20 07:22:41;;;;;;;12.20;7.40;;;20.00;78.00;;;;;;5011588;28;20198;-75
2021/08/20 07:25:07;;;;;;;10.20;6.57;;;20.30;77.60;;;;;;5013032;28;20581;-76
2021/08/20 07:27:33;;;;;;;10.83;7.27;;;20.50;76.60;;;;;;5012823;28;20320;-73
2021/08/20 07:29:59;;;;;;;7.80;6.23;;;20.60;75.50;;;;;;5011199;28;20459;-75
2021/08/20 07:32:24;;;;;;;10.83;6.60;;;20.50;75.00;;;;;;5012851;28;20731;-75
2021/08/20 07:34:50;;;;;;;11.80;6.70;;;20.40;75.90;;;;;;5012425;28;20250;-75
2021/08/20 07:37:15;;;;;;;10.00;7.67;;;20.30;75.90;;;;;;5012972;28;20210;-75
2021/08/20 07:39:41;;;;;;;10.30;7.10;;;20.10;76.20;;;;;;5011169;28;20178;-75
2021/08/20 07:42:07;;;;;;;15.87;11.50;;;20.00;76.90;;;;;;5011576;28;20246;-75
2021/08/20 07:44:33;;;;;;;11.70;6.53;;;19.90;78.20;;;;;;5012666;28;20537;-76
2021/08/20 07:46:59;;;;;;;11.47;6.77;;;19.80;78.30;;;;;;5013108;28;20201;-76
2021/08/20 07:49:25;;;;;;;10.70;6.70;;;19.70;79.10;;;;;;5011494;28;20168;-75
2021/08/20 07:51:52;;;;;;;10.10;6.20;;;19.70;79.30;;;;;;5012560;28;20505;-75
2021/08/20 07:54:17;;;;;;;7.90;6.50;;;19.70;78.90;;;;;;5012381;28;20465;-76
2021/08/20 07:56:43;;;;;;;10.77;6.97;;;19.60;78.90;;;;;;5011189;28;20464;-75
2021/08/20 07:59:09;;;;;;;9.70;5.60;;;19.50;79.90;;;;;;5011681;28;20296;-77
2021/08/20 08:01:34;;;;;;;15.30;6.17;;;19.50;80.50;;;;;;5009790;28;20174;-75
2021/08/20 08:04:00;;;;;;;10.40;6.53;;;19.50;80.00;;;;;;5010922;28;20268;-75
2021/08/20 08:06:26;;;;;;;9.77;5.90;;;19.50;80.00;;;;;;5011984;28;20611;-75
2021/08/20 08:08:53;;;;;;;12.33;8.43;;;19.60;80.70;;;;;;5011257;28;20185;-75
2021/08/20 08:11:19;;;;;;;12.30;8.30;;;19.70;80.40;;;;;;5012166;28;20512;-75
2021/08/20 08:13:45;;;;;;;11.23;6.33;;;19.80;79.40;;;;;;5012002;28;20483;-76
2021/08/20 08:16:11;;;;;;;8.60;5.97;;;19.90;78.40;;;;;;5012403;28;20501;-76
2021/08/20 08:18:36;;;;;;;9.40;6.90;;;20.10;78.90;;;;;;5011406;28;20171;-75
2021/08/20 08:21:02;;;;;;;9.40;7.30;;;20.40;77.10;;;;;;5011306;28;20663;-75
2021/08/20 08:23:28;;;;;;;10.70;7.30;;;20.50;76.20;;;;;;5012292;28;20202;-76
2021/08/20 08:25:53;;;;;;;12.70;9.50;;;20.50;75.60;;;;;;5010981;28;20218;-76
2021/08/20 08:28:20;;;;;;;10.83;6.60;;;20.40;76.10;;;;;;5011434;28;20245;-75
2021/08/20 08:30:48;;;;;;;13.53;7.53;;;20.40;75.70;;;;;;5010501;28;20175;-75
2021/08/20 08:33:15;;;;;;;9.63;7.30;;;20.30;76.00;;;;;;5011139;28;20458;-75
2021/08/20 08:35:42;;;;;;;8.20;5.90;;;20.20;76.20;;;;;;5011553;28;20422;-75
2021/08/20 08:38:12;;;;;;;13.97;6.83;;;20.20;76.90;;;;;;5010111;28;20414;-74
2021/08/20 08:40:42;;;;;;;8.40;7.00;;;20.20;77.30;;;;;;5010677;28;20465;-76
2021/08/20 08:43:09;;;;;;;10.90;6.50;;;20.50;76.40;;;;;;5012229;28;20430;-75
2021/08/20 08:45:35;;;;;;;11.23;6.50;;;21.00;75.00;;;;;;5013605;28;20501;-76
2021/08/20 08:48:04;;;;;;;9.90;5.77;;;21.80;73.60;;;;;;5010801;28;20426;-75
2021/08/20 08:50:30;;;;;;;8.30;6.60;;;22.50;70.00;;;;;;5010983;28;20621;-74
2021/08/20 08:52:56;;;;;;;11.13;8.07;;;22.80;68.30;;;;;;5010893;28;20462;-75
2021/08/20 08:55:22;;;;;;;8.87;6.40;;;22.90;66.20;;;;;;5009744;28;20425;-76
2021/08/20 08:57:48;;;;;;;9.67;6.07;;;22.90;65.30;;;;;;5009952;28;20258;-75
2021/08/20 09:00:26;;;;;;;9.47;6.23;;;22.70;65.30;;;;;;5009745;28;20437;-75
2021/08/20 09:02:52;;;;;;;7.37;4.97;;;22.50;66.30;;;;;;5008534;28;20210;-77
2021/08/20 09:05:18;;;;;;;6.87;5.30;;;22.50;66.60;;;;;;5011895;28;20418;-74
2021/08/20 09:07:43;;;;;;;9.60;5.80;;;22.50;66.00;;;;;;5011215;28;20545;-76
2021/08/20 09:10:15;;;;;;;9.37;6.57;;;22.40;66.30;;;;;;5011882;28;20163;-76
2021/08/20 09:12:42;;;;;;;7.33;5.50;;;22.30;67.20;;;;;;5010177;28;20249;-76
2021/08/20 09:15:09;;;;;;;5.33;4.83;;;22.20;67.80;;;;;;5008545;28;20441;-76
2021/08/20 09:17:35;;;;;;;10.63;6.77;;;22.10;67.40;;;;;;4992758;28;20602;-76
2021/08/20 09:20:22;;;;;;;6.33;5.10;;;22.10;68.60;;;;;;4992558;28;20415;-76
2021/08/20 09:22:50;;;;;;;8.53;5.90;;;22.10;67.80;;;;;;5005094;28;20513;-75
2021/08/20 09:25:33;;;;;;;6.63;5.07;;;21.90;68.10;;;;;;4998364;28;20414;-76
2021/08/20 09:28:22;;;;;;;9.80;4.77;;;21.70;70.30;;;;;;4997332;28;20771;-75
2021/08/20 09:30:56;;;;;;;7.70;5.77;;;21.40;72.90;;;;;;5009638;28;20684;-75
2021/08/20 09:33:25;;;;;;;8.73;6.93;;;21.30;74.70;;;;;;5010511;28;20947;-75
2021/08/20 09:36:03;;;;;;;8.53;6.90;;;21.20;75.50;;;;;;4998468;28;20434;-76
2021/08/20 09:38:31;;;;;;;10.10;7.73;;;21.00;77.00;;;;;;5008959;28;20467;-76
2021/08/20 09:41:02;;;;;;;8.30;7.43;;;20.90;78.50;;;;;;4995856;28;20419;-76
2021/08/20 09:43:33;;;;;;;11.93;8.63;;;20.80;80.10;;;;;;4989137;28;20658;-75
2021/08/20 09:46:00;;;;;;;13.80;8.60;;;20.70;81.80;;;;;;4994382;28;20651;-75
2021/08/20 09:48:58;;;;;;;13.93;7.00;;;20.80;83.10;;;;;;4988994;28;20454;-76
2021/08/20 09:51:34;;;;;;;5.47;4.90;;;21.10;81.90;;;;;;5003059;28;20430;-76
2021/08/20 09:54:08;;;;;;;9.70;5.57;;;21.40;77.90;;;;;;5008140;28;20487;-76
2021/08/20 09:56:36;;;;;;;10.23;5.10;;;22.00;79.40;;;;;;5005996;28;20433;-77
2021/08/20 09:59:05;;;;;;;6.37;4.87;;;22.90;75.30;;;;;;5011497;28;20497;-76
2021/08/20 10:01:32;;;;;;;5.67;4.23;;;23.40;70.70;;;;;;5006967;28;20932;-78
2021/08/20 10:03:59;;;;;;;4.57;4.17;;;23.70;69.20;;;;;;5011719;28;20457;-76
2021/08/20 10:06:34;;;;;;;4.70;3.30;;;24.10;66.80;;;;;;5013264;28;20421;-78
2021/08/20 10:09:04;;;;;;;5.90;5.30;;;24.30;65.20;;;;;;5018066;28;20425;-78
2021/08/20 10:11:33;;;;;;;6.60;3.30;;;24.30;64.60;;;;;;5019454;28;20440;-78
2021/08/20 10:14:03;;;;;;;9.10;4.17;;;24.10;64.60;;;;;;5023034;28;20457;-79
2021/08/20 10:16:31;;;;;;;6.63;4.20;;;23.70;65.60;;;;;;5022878;28;20410;-78
2021/08/20 10:18:59;;;;;;;8.03;3.70;;;23.40;68.40;;;;;;5022894;28;20410;-78
2021/08/20 10:21:25;;;;;;;8.57;5.37;;;23.30;69.20;;;;;;5018535;28;20429;-77
2021/08/20 10:23:51;;;;;;;5.60;3.83;;;23.40;68.60;;;;;;5015332;28;20454;-78
2021/08/20 10:26:17;;;;;;;12.53;4.30;;;23.50;69.70;;;;;;5002648;28;20509;-78
2021/08/20 10:28:44;;;;;;;3.37;2.60;;;24.10;69.00;;;;;;5006020;28;20175;-78
2021/08/20 10:31:12;;;;;;;3.00;2.43;;;25.70;63.50;;;;;;5024742;28;20179;-77
2021/08/20 10:33:38;;;;;;;2.50;1.70;;;26.50;59.10;;;;;;5026055;28;20457;-77
2021/08/20 10:36:04;;;;;;;3.63;1.60;;;27.50;56.40;;;;;;5024242;28;20446;-77
2021/08/20 10:38:39;;;;;;;2.93;1.47;;;28.00;53.10;;;;;;5028178;28;20178;-78
2021/08/20 10:41:13;;;;;;;2.33;1.60;;;27.90;52.80;;;;;;5027431;28;20475;-77
2021/08/20 10:44:05;;;;;;;2.70;1.73;;;27.30;53.90;;;;;;5024278;28;20433;-77
2021/08/20 10:46:31;;;;;;;3.20;1.93;;;26.30;55.20;;;;;;5020085;28;20433;-77
2021/08/20 10:49:12;;;;;;;2.83;2.00;;;25.40;57.60;;;;;;5023726;28;20479;-78
2021/08/20 10:51:49;;;;;;;1.97;1.77;;;24.50;59.40;;;;;;5022504;28;20254;-77
2021/08/20 10:54:31;;;;;;;20.00;10.50;;;23.70;63.00;;;;;;5021563;28;20453;-78
2021/08/20 10:57:01;;;;;;;2.40;2.03;;;23.20;65.00;;;;;;5023387;28;20460;-78
2021/08/20 10:59:36;;;;;;;1.97;1.67;;;22.90;66.90;;;;;;5021483;28;20437;-77
2021/08/20 11:02:20;;;;;;;3.83;2.03;;;22.70;68.10;;;;;;5021336;28;20417;-77
2021/08/20 11:04:58;;;;;;;2.87;1.90;;;22.60;69.00;;;;;;5022517;28;20429;-77
2021/08/20 11:07:39;;;;;;;2.60;1.40;;;22.50;69.40;;;;;;5022159;28;20428;-77
2021/08/20 11:10:08;;;;;;;6.20;1.90;;;22.30;70.10;;;;;;5022868;28;20489;-77
2021/08/20 11:12:49;;;;;;;39.60;35.57;;;22.20;71.20;;;;;;5024539;28;20883;-77
2021/08/20 11:15:18;;;;;;;4.00;1.97;;;22.20;71.80;;;;;;5026696;28;20421;-77
2021/08/20 11:17:55;;;;;;;2.87;1.53;;;22.40;70.90;;;;;;5018664;28;20523;-78
2021/08/20 11:20:26;;;;;;;2.80;1.70;;;22.60;69.80;;;;;;5026637;28;20472;-78
2021/08/20 11:23:07;;;;;;;2.07;1.30;;;22.70;69.30;;;;;;5027870;28;20437;-79
2021/08/20 11:25:37;;;;;;;5.07;3.10;;;22.90;69.30;;;;;;5023312;28;20457;-81
2021/08/20 11:28:20;;;;;;;3.60;3.30;;;23.20;67.60;;;;;;5016610;28;20428;-77
2021/08/20 11:31:07;;;;;;;4.13;3.20;;;23.50;67.00;;;;;;5014007;28;20841;-76
2021/08/20 11:33:37;;;;;;;8.67;4.20;;;23.80;65.30;;;;;;4996389;28;20468;-76
2021/08/20 11:36:07;;;;;;;5.50;1.80;;;23.90;64.00;;;;;;5010751;28;20822;-75
2021/08/20 11:38:41;;;;;;;1.80;1.40;;;23.90;63.40;;;;;;5012013;28;20904;-75
2021/08/20 11:41:23;;;;;;;3.17;1.77;;;23.80;63.50;;;;;;5012729;28;20406;-76
2021/08/20 11:43:54;;;;;;;4.40;1.70;;;23.60;64.60;;;;;;4992764;28;20469;-76
2021/08/20 11:46:21;;;;;;;3.03;2.30;;;23.60;64.20;;;;;;5005378;28;20437;-74
2021/08/20 11:48:53;;;;;;;8.53;2.00;;;23.70;64.00;;;;;;5012911;28;20784;-78
2021/08/20 11:51:29;;;;;;;3.57;1.37;;;23.80;63.70;;;;;;5021620;28;20454;-78
2021/08/20 11:53:56;;;;;;;3.20;2.10;;;24.00;62.30;;;;;;5025521;28;20465;-78
2021/08/20 11:56:22;;;;;;;7.37;4.83;;;24.20;60.60;;;;;;5022931;28;20446;-77
2021/08/20 11:58:48;;;;;;;1.93;1.47;;;24.30;61.00;;;;;;5012801;28;20426;-77
2021/08/20 12:01:20;;;;;;;3.50;2.70;;;24.50;61.10;;;;;;5002350;28;20184;-77
2021/08/20 12:03:52;;;;;;;1.80;1.37;;;24.60;60.30;;;;;;5012621;28;20194;-78
2021/08/20 12:06:18;;;;;;;2.83;1.37;;;24.60;58.70;;;;;;5018750;28;20422;-77
2021/08/20 12:08:45;;;;;;;3.70;2.23;;;24.50;59.00;;;;;;5021796;28;20452;-79
2021/08/20 12:11:12;;;;;;;4.13;1.80;;;24.40;59.30;;;;;;5025747;28;20453;-79
2021/08/20 12:13:56;;;;;;;3.77;1.53;;;24.30;59.80;;;;;;5025573;28;20487;-78
2021/08/20 12:16:41;;;;;;;4.83;2.77;;;24.40;59.30;;;;;;5024644;28;20426;-78
2021/08/20 12:19:13;;;;;;;3.27;2.00;;;24.40;59.70;;;;;;5024009;28;20532;-77
2021/08/20 12:21:39;;;;;;;4.43;2.40;;;24.40;59.70;;;;;;5024510;28;20459;-78
2021/08/20 12:24:06;;;;;;;1.30;1.10;;;24.40;59.70;;;;;;5024654;28;20444;-78
2021/08/20 12:26:32;;;;;;;3.50;1.60;;;24.40;59.80;;;;;;5016775;28;20457;-79
2021/08/20 12:28:57;;;;;;;2.53;1.83;;;24.30;59.80;;;;;;5017211;28;20449;-79
2021/08/20 12:31:27;;;;;;;3.03;2.27;;;24.30;60.60;;;;;;5018065;28;20421;-79
2021/08/20 12:34:04;;;;;;;2.87;1.83;;;24.40;60.40;;;;;;5016982;28;20649;-79
2021/08/20 12:36:30;;;;;;;2.20;1.90;;;24.60;58.80;;;;;;5017060;28;20421;-77
2021/08/20 12:39:09;;;;;;;3.40;1.37;;;24.70;59.10;;;;;;5017690;28;20560;-80
2021/08/20 12:41:34;;;;;;;3.00;1.70;;;24.70;58.70;;;;;;5014504;28;20421;-79
2021/08/20 12:44:00;;;;;;;3.53;1.87;;;24.60;58.60;;;;;;5003372;28;20951;-79
2021/08/20 12:46:38;;;;;;;3.27;1.50;;;24.40;58.30;;;;;;5018228;28;20206;-80
2021/08/20 12:49:05;;;;;;;2.83;1.97;;;24.30;58.20;;;;;;5014465;28;20221;-78
2021/08/20 12:51:36;;;;;;;4.63;3.23;;;24.10;58.60;;;;;;5015535;28;20927;-79
2021/08/20 12:54:10;;;;;;;2.60;2.00;;;24.10;59.20;;;;;;5016821;28;20460;-79